< < Back
Terminal Aerodrome Forecast


Current Version              Previous Versions:   1  2  3  4  5  6  7  8  9  

Terminal Aerodrome Forecast

471
FTUS42 KCAE 170700 AAA
TAFCAE
TAF AMD
KCAE 170744Z 1708/1806 VRB03KT P6SM VCTS SCT025CB BKN100
     FM171000 VRB03KT P6SM SCT015
     FM171100 VRB03KT 4SM BR BKN015
     FM171300 03004KT P6SM BKN025
     FM171500 03004KT P6SM BKN040=



Latest METAR

052
SAUS80 KWBC 170700
MTRCAE
METAR KCAE 170656Z 03005KT 10SM -RA FEW024 BKN055 BKN110 23/20 A2995 RMK
AO2 RAB43 SLP139 P0000 T02330200


USA.gov is the U.S. government's official web portal to all federal, state and local government web resources and services.